sensor_id;sensor_type;location;lat;lon;timestamp;P1;durP1;ratioP1;P2;durP2;ratioP2
43817;SDS011;29868;47.360;18.984;2023-03-01T09:37:10;19.23;;;10.90;;
43817;SDS011;29868;47.360;18.984;2023-03-01T09:39:36;13.95;;;7.60;;
43817;SDS011;29868;47.360;18.984;2023-03-01T09:42:02;17.65;;;8.88;;
43817;SDS011;29868;47.360;18.984;2023-03-01T09:44:36;14.60;;;8.65;;
43817;SDS011;29868;47.360;18.984;2023-03-01T09:47:27;17.98;;;9.18;;
43817;SDS011;29868;47.360;18.984;2023-03-01T09:52:38;14.63;;;8.20;;
43817;SDS011;29868;47.360;18.984;2023-03-01T09:55:15;13.27;;;7.28;;
43817;SDS011;29868;47.360;18.984;2023-03-01T09:58:04;15.32;;;7.97;;
43817;SDS011;29868;47.360;18.984;2023-03-01T10:00:50;14.02;;;8.45;;
43817;SDS011;29868;47.360;18.984;2023-03-01T10:03:24;16.42;;;8.68;;
43817;SDS011;29868;47.360;18.984;2023-03-01T10:05:58;19.35;;;9.68;;
43817;SDS011;29868;47.360;18.984;2023-03-01T10:10:58;16.35;;;9.02;;
43817;SDS011;29868;47.360;18.984;2023-03-01T10:16:16;14.13;;;8.00;;
43817;SDS011;29868;47.360;18.984;2023-03-01T10:18:46;14.02;;;8.15;;
43817;SDS011;29868;47.360;18.984;2023-03-01T10:21:19;14.45;;;8.30;;
43817;SDS011;29868;47.360;18.984;2023-03-01T10:23:45;14.57;;;7.65;;
43817;SDS011;29868;47.360;18.984;2023-03-01T10:26:21;15.43;;;8.13;;
43817;SDS011;29868;47.360;18.984;2023-03-01T10:31:31;13.93;;;7.43;;
43817;SDS011;29868;47.360;18.984;2023-03-01T10:34:10;12.50;;;7.25;;
43817;SDS011;29868;47.360;18.984;2023-03-01T10:36:36;15.93;;;8.52;;
43817;SDS011;29868;47.360;18.984;2023-03-01T10:39:06;18.27;;;8.90;;
43817;SDS011;29868;47.360;18.984;2023-03-01T10:41:37;14.48;;;9.00;;
43817;SDS011;29868;47.360;18.984;2023-03-01T10:44:37;15.73;;;7.55;;
43817;SDS011;29868;47.360;18.984;2023-03-01T10:47:17;13.30;;;8.10;;
43817;SDS011;29868;47.360;18.984;2023-03-01T10:52:19;12.63;;;7.40;;
43817;SDS011;29868;47.360;18.984;2023-03-01T10:54:55;11.95;;;6.95;;
43817;SDS011;29868;47.360;18.984;2023-03-01T10:57:30;13.00;;;6.85;;
43817;SDS011;29868;47.360;18.984;2023-03-01T11:05:39;14.65;;;7.70;;
43817;SDS011;29868;47.360;18.984;2023-03-01T11:13:57;14.93;;;7.78;;
43817;SDS011;29868;47.360;18.984;2023-03-01T11:16:41;12.40;;;6.90;;
43817;SDS011;29868;47.360;18.984;2023-03-01T11:21:34;11.18;;;6.78;;
43817;SDS011;29868;47.360;18.984;2023-03-01T11:24:03;11.73;;;6.53;;
43817;SDS011;29868;47.360;18.984;2023-03-01T11:26:34;12.50;;;6.35;;
43817;SDS011;29868;47.360;18.984;2023-03-01T11:29:05;11.27;;;6.13;;
43817;SDS011;29868;47.360;18.984;2023-03-01T11:31:37;11.80;;;6.10;;
43817;SDS011;29868;47.360;18.984;2023-03-01T11:34:09;10.57;;;6.50;;
43817;SDS011;29868;47.360;18.984;2023-03-01T11:36:50;11.55;;;6.45;;
43817;SDS011;29868;47.360;18.984;2023-03-01T11:39:39;12.32;;;6.57;;
43817;SDS011;29868;47.360;18.984;2023-03-01T11:42:25;11.20;;;6.57;;
43817;SDS011;29868;47.360;18.984;2023-03-01T11:45:05;10.60;;;6.30;;
43817;SDS011;29868;47.360;18.984;2023-03-01T11:56:24;10.80;;;6.28;;
43817;SDS011;29868;47.360;18.984;2023-03-01T11:59:05;12.63;;;6.78;;
43817;SDS011;29868;47.360;18.984;2023-03-01T12:07:00;11.52;;;6.45;;
43817;SDS011;29868;47.360;18.984;2023-03-01T12:18:05;10.88;;;6.18;;
43817;SDS011;29868;47.360;18.984;2023-03-01T12:31:53;21.38;;;13.68;;
43817;SDS011;29868;47.360;18.984;2023-03-01T12:42:17;8.57;;;5.32;;
43817;SDS011;29868;47.360;18.984;2023-03-01T12:47:57;8.30;;;4.38;;
43817;SDS011;29868;47.360;18.984;2023-03-01T12:50:34;10.10;;;5.50;;
43817;SDS011;29868;47.360;18.984;2023-03-01T12:53:33;8.15;;;4.25;;
43817;SDS011;29868;47.360;18.984;2023-03-01T12:56:05;7.05;;;4.10;;
43817;SDS011;29868;47.360;18.984;2023-03-01T13:07:11;8.40;;;4.78;;
43817;SDS011;29868;47.360;18.984;2023-03-01T13:10:26;10.38;;;4.88;;
43817;SDS011;29868;47.360;18.984;2023-03-01T13:15:25;9.10;;;4.80;;
43817;SDS011;29868;47.360;18.984;2023-03-01T13:17:59;8.20;;;4.32;;
43817;SDS011;29868;47.360;18.984;2023-03-01T13:20:29;8.15;;;4.97;;
43817;SDS011;29868;47.360;18.984;2023-03-01T13:23:02;7.95;;;4.90;;
43817;SDS011;29868;47.360;18.984;2023-03-01T13:25:30;37.10;;;32.45;;
43817;SDS011;29868;47.360;18.984;2023-03-01T13:30:58;7.65;;;4.47;;
43817;SDS011;29868;47.360;18.984;2023-03-01T13:35:56;7.38;;;4.28;;
43817;SDS011;29868;47.360;18.984;2023-03-01T13:41:16;7.32;;;4.40;;
43817;SDS011;29868;47.360;18.984;2023-03-01T13:44:02;6.95;;;4.25;;
43817;SDS011;29868;47.360;18.984;2023-03-01T13:46:53;39.08;;;18.40;;
43817;SDS011;29868;47.360;18.984;2023-03-01T13:49:23;49.58;;;22.30;;
43817;SDS011;29868;47.360;18.984;2023-03-01T13:51:52;14.30;;;6.93;;
43817;SDS011;29868;47.360;18.984;2023-03-01T13:54:51;23.90;;;11.05;;
43817;SDS011;29868;47.360;18.984;2023-03-01T13:57:12;15.30;;;7.20;;
43817;SDS011;29868;47.360;18.984;2023-03-01T13:59:47;14.90;;;6.10;;
43817;SDS011;29868;47.360;18.984;2023-03-01T14:02:13;17.55;;;8.60;;
43817;SDS011;29868;47.360;18.984;2023-03-01T14:04:40;8.38;;;4.45;;
43817;SDS011;29868;47.360;18.984;2023-03-01T14:07:19;20.65;;;9.88;;
43817;SDS011;29868;47.360;18.984;2023-03-01T14:09:48;27.15;;;13.07;;
43817;SDS011;29868;47.360;18.984;2023-03-01T14:20:14;10.15;;;5.40;;
43817;SDS011;29868;47.360;18.984;2023-03-01T14:22:44;13.13;;;7.40;;
43817;SDS011;29868;47.360;18.984;2023-03-01T14:25:29;15.13;;;8.85;;
43817;SDS011;29868;47.360;18.984;2023-03-01T14:27:58;7.63;;;4.55;;
43817;SDS011;29868;47.360;18.984;2023-03-01T14:30:46;7.70;;;3.92;;
43817;SDS011;29868;47.360;18.984;2023-03-01T14:36:04;11.60;;;6.03;;
43817;SDS011;29868;47.360;18.984;2023-03-01T14:38:35;24.50;;;15.20;;
43817;SDS011;29868;47.360;18.984;2023-03-01T14:41:15;23.20;;;15.27;;
43817;SDS011;29868;47.360;18.984;2023-03-01T14:43:43;8.65;;;4.88;;
43817;SDS011;29868;47.360;18.984;2023-03-01T14:49:02;7.07;;;4.20;;
43817;SDS011;29868;47.360;18.984;2023-03-01T14:51:36;7.53;;;4.50;;
43817;SDS011;29868;47.360;18.984;2023-03-01T14:54:03;6.35;;;3.58;;
43817;SDS011;29868;47.360;18.984;2023-03-01T14:56:44;9.10;;;4.63;;
43817;SDS011;29868;47.360;18.984;2023-03-01T14:59:10;6.82;;;4.25;;
43817;SDS011;29868;47.360;18.984;2023-03-01T15:01:36;8.65;;;4.20;;
43817;SDS011;29868;47.360;18.984;2023-03-01T15:04:02;10.05;;;7.22;;
43817;SDS011;29868;47.360;18.984;2023-03-01T15:06:27;9.93;;;5.43;;
43817;SDS011;29868;47.360;18.984;2023-03-01T15:08:53;76.50;;;42.80;;
43817;SDS011;29868;47.360;18.984;2023-03-01T15:11:31;29.45;;;17.98;;
43817;SDS011;29868;47.360;18.984;2023-03-01T15:13:58;14.63;;;11.05;;
43817;SDS011;29868;47.360;18.984;2023-03-01T15:21:23;9.77;;;5.68;;
43817;SDS011;29868;47.360;18.984;2023-03-01T15:24:08;9.77;;;4.88;;
43817;SDS011;29868;47.360;18.984;2023-03-01T15:26:52;9.95;;;5.47;;
43817;SDS011;29868;47.360;18.984;2023-03-01T15:29:23;10.15;;;5.70;;
43817;SDS011;29868;47.360;18.984;2023-03-01T15:31:58;8.52;;;4.70;;
43817;SDS011;29868;47.360;18.984;2023-03-01T15:34:27;9.25;;;4.30;;
43817;SDS011;29868;47.360;18.984;2023-03-01T15:36:55;8.60;;;4.40;;
43817;SDS011;29868;47.360;18.984;2023-03-01T15:39:28;6.97;;;3.88;;
43817;SDS011;29868;47.360;18.984;2023-03-01T15:41:55;8.55;;;4.22;;
43817;SDS011;29868;47.360;18.984;2023-03-01T15:44:28;8.05;;;4.72;;
43817;SDS011;29868;47.360;18.984;2023-03-01T15:46:55;7.53;;;5.03;;
43817;SDS011;29868;47.360;18.984;2023-03-01T15:49:33;8.73;;;3.78;;
43817;SDS011;29868;47.360;18.984;2023-03-01T15:52:03;7.50;;;3.65;;
43817;SDS011;29868;47.360;18.984;2023-03-01T15:54:30;7.72;;;4.18;;
43817;SDS011;29868;47.360;18.984;2023-03-01T15:56:56;6.80;;;4.50;;
43817;SDS011;29868;47.360;18.984;2023-03-01T15:59:22;6.53;;;4.00;;
43817;SDS011;29868;47.360;18.984;2023-03-01T16:01:48;6.60;;;3.65;;
43817;SDS011;29868;47.360;18.984;2023-03-01T16:04:15;8.07;;;3.83;;
43817;SDS011;29868;47.360;18.984;2023-03-01T16:06:54;7.70;;;4.00;;
43817;SDS011;29868;47.360;18.984;2023-03-01T16:09:23;16.58;;;7.60;;
43817;SDS011;29868;47.360;18.984;2023-03-01T16:11:50;12.77;;;6.97;;
43817;SDS011;29868;47.360;18.984;2023-03-01T16:14:17;13.00;;;7.63;;
43817;SDS011;29868;47.360;18.984;2023-03-01T16:16:43;20.90;;;13.57;;
43817;SDS011;29868;47.360;18.984;2023-03-01T16:19:08;21.20;;;15.65;;
43817;SDS011;29868;47.360;18.984;2023-03-01T16:21:35;15.82;;;10.18;;
43817;SDS011;29868;47.360;18.984;2023-03-01T16:24:00;15.90;;;9.50;;
43817;SDS011;29868;47.360;18.984;2023-03-01T16:26:26;18.70;;;9.85;;
43817;SDS011;29868;47.360;18.984;2023-03-01T16:28:53;22.15;;;11.82;;
43817;SDS011;29868;47.360;18.984;2023-03-01T16:31:20;18.08;;;9.95;;
43817;SDS011;29868;47.360;18.984;2023-03-01T16:33:46;32.08;;;16.67;;
43817;SDS011;29868;47.360;18.984;2023-03-01T16:36:14;27.33;;;16.60;;
43817;SDS011;29868;47.360;18.984;2023-03-01T16:38:41;29.67;;;17.02;;
43817;SDS011;29868;47.360;18.984;2023-03-01T16:41:09;25.73;;;16.17;;
43817;SDS011;29868;47.360;18.984;2023-03-01T16:43:36;16.83;;;9.15;;
43817;SDS011;29868;47.360;18.984;2023-03-01T16:46:05;15.93;;;8.75;;
43817;SDS011;29868;47.360;18.984;2023-03-01T16:48:35;15.57;;;8.70;;
43817;SDS011;29868;47.360;18.984;2023-03-01T16:51:00;18.90;;;10.23;;
43817;SDS011;29868;47.360;18.984;2023-03-01T16:53:27;19.27;;;10.07;;
43817;SDS011;29868;47.360;18.984;2023-03-01T16:55:57;16.60;;;10.18;;
43817;SDS011;29868;47.360;18.984;2023-03-01T16:58:23;18.80;;;10.18;;
43817;SDS011;29868;47.360;18.984;2023-03-01T17:00:50;19.95;;;10.93;;
43817;SDS011;29868;47.360;18.984;2023-03-01T17:03:22;20.50;;;11.00;;
43817;SDS011;29868;47.360;18.984;2023-03-01T17:05:49;14.88;;;9.50;;
43817;SDS011;29868;47.360;18.984;2023-03-01T17:08:14;16.95;;;9.00;;
43817;SDS011;29868;47.360;18.984;2023-03-01T17:10:40;17.58;;;9.80;;
43817;SDS011;29868;47.360;18.984;2023-03-01T17:13:07;17.10;;;9.48;;
43817;SDS011;29868;47.360;18.984;2023-03-01T17:15:34;16.27;;;8.70;;
43817;SDS011;29868;47.360;18.984;2023-03-01T17:18:00;17.23;;;10.13;;
43817;SDS011;29868;47.360;18.984;2023-03-01T17:20:26;17.73;;;9.25;;
43817;SDS011;29868;47.360;18.984;2023-03-01T17:22:51;21.63;;;11.23;;
43817;SDS011;29868;47.360;18.984;2023-03-01T17:25:17;16.25;;;10.45;;
43817;SDS011;29868;47.360;18.984;2023-03-01T17:27:43;19.92;;;10.70;;
43817;SDS011;29868;47.360;18.984;2023-03-01T17:30:09;16.13;;;9.65;;
43817;SDS011;29868;47.360;18.984;2023-03-01T17:32:37;14.73;;;8.13;;
43817;SDS011;29868;47.360;18.984;2023-03-01T17:35:02;20.15;;;8.43;;
43817;SDS011;29868;47.360;18.984;2023-03-01T17:37:28;17.13;;;9.07;;
43817;SDS011;29868;47.360;18.984;2023-03-01T17:39:53;18.67;;;9.30;;
43817;SDS011;29868;47.360;18.984;2023-03-01T17:42:19;17.13;;;9.07;;
43817;SDS011;29868;47.360;18.984;2023-03-01T17:44:44;18.40;;;8.57;;
43817;SDS011;29868;47.360;18.984;2023-03-01T17:47:10;16.42;;;8.23;;
43817;SDS011;29868;47.360;18.984;2023-03-01T17:49:35;16.27;;;7.85;;
43817;SDS011;29868;47.360;18.984;2023-03-01T17:52:01;16.77;;;8.20;;
43817;SDS011;29868;47.360;18.984;2023-03-01T17:54:26;16.27;;;7.85;;
43817;SDS011;29868;47.360;18.984;2023-03-01T17:56:52;22.13;;;10.43;;
43817;SDS011;29868;47.360;18.984;2023-03-01T17:59:19;18.98;;;9.30;;
43817;SDS011;29868;47.360;18.984;2023-03-01T18:01:45;27.63;;;11.38;;
43817;SDS011;29868;47.360;18.984;2023-03-01T18:04:11;25.98;;;12.23;;
43817;SDS011;29868;47.360;18.984;2023-03-01T18:06:36;29.02;;;13.65;;
43817;SDS011;29868;47.360;18.984;2023-03-01T18:09:02;28.30;;;14.45;;
43817;SDS011;29868;47.360;18.984;2023-03-01T18:11:28;24.48;;;13.57;;
43817;SDS011;29868;47.360;18.984;2023-03-01T18:13:54;32.72;;;13.93;;
43817;SDS011;29868;47.360;18.984;2023-03-01T18:16:20;32.78;;;16.90;;
43817;SDS011;29868;47.360;18.984;2023-03-01T18:18:46;32.92;;;15.93;;
43817;SDS011;29868;47.360;18.984;2023-03-01T18:21:12;29.55;;;15.95;;
43817;SDS011;29868;47.360;18.984;2023-03-01T18:23:39;36.38;;;16.38;;
43817;SDS011;29868;47.360;18.984;2023-03-01T18:26:09;35.95;;;17.20;;
43817;SDS011;29868;47.360;18.984;2023-03-01T18:28:36;41.47;;;19.40;;
43817;SDS011;29868;47.360;18.984;2023-03-01T18:31:05;46.05;;;21.08;;
43817;SDS011;29868;47.360;18.984;2023-03-01T18:33:34;50.35;;;23.70;;
43817;SDS011;29868;47.360;18.984;2023-03-01T18:36:00;47.80;;;23.65;;
43817;SDS011;29868;47.360;18.984;2023-03-01T18:38:26;49.30;;;23.80;;
43817;SDS011;29868;47.360;18.984;2023-03-01T18:40:52;48.08;;;23.77;;
43817;SDS011;29868;47.360;18.984;2023-03-01T18:43:18;42.75;;;20.60;;
43817;SDS011;29868;47.360;18.984;2023-03-01T18:45:44;49.80;;;23.38;;
43817;SDS011;29868;47.360;18.984;2023-03-01T18:48:13;44.35;;;22.73;;
43817;SDS011;29868;47.360;18.984;2023-03-01T18:50:39;46.42;;;25.15;;
43817;SDS011;29868;47.360;18.984;2023-03-01T18:53:05;55.28;;;27.30;;
43817;SDS011;29868;47.360;18.984;2023-03-01T18:55:34;52.35;;;26.48;;
43817;SDS011;29868;47.360;18.984;2023-03-01T18:58:01;65.25;;;28.23;;
43817;SDS011;29868;47.360;18.984;2023-03-01T19:00:26;63.50;;;28.42;;
43817;SDS011;29868;47.360;18.984;2023-03-01T19:02:51;48.33;;;24.92;;
43817;SDS011;29868;47.360;18.984;2023-03-01T19:05:17;50.67;;;25.38;;
43817;SDS011;29868;47.360;18.984;2023-03-01T19:07:42;55.20;;;25.95;;
43817;SDS011;29868;47.360;18.984;2023-03-01T19:10:08;50.78;;;25.38;;
43817;SDS011;29868;47.360;18.984;2023-03-01T19:12:34;46.63;;;24.98;;
43817;SDS011;29868;47.360;18.984;2023-03-01T19:14:59;48.90;;;23.63;;
43817;SDS011;29868;47.360;18.984;2023-03-01T19:17:25;48.83;;;24.63;;
43817;SDS011;29868;47.360;18.984;2023-03-01T19:19:55;49.40;;;24.23;;
43817;SDS011;29868;47.360;18.984;2023-03-01T19:22:21;46.63;;;24.27;;
43817;SDS011;29868;47.360;18.984;2023-03-01T19:24:46;46.08;;;24.10;;
43817;SDS011;29868;47.360;18.984;2023-03-01T19:27:12;49.63;;;24.23;;
43817;SDS011;29868;47.360;18.984;2023-03-01T19:29:37;46.53;;;24.00;;
43817;SDS011;29868;47.360;18.984;2023-03-01T19:32:03;48.10;;;24.48;;
43817;SDS011;29868;47.360;18.984;2023-03-01T19:34:28;48.25;;;23.83;;
43817;SDS011;29868;47.360;18.984;2023-03-01T19:36:54;53.05;;;26.23;;
43817;SDS011;29868;47.360;18.984;2023-03-01T19:39:19;49.33;;;25.98;;
43817;SDS011;29868;47.360;18.984;2023-03-01T19:41:44;57.28;;;28.73;;
43817;SDS011;29868;47.360;18.984;2023-03-01T19:44:10;60.45;;;29.73;;
43817;SDS011;29868;47.360;18.984;2023-03-01T19:46:36;59.42;;;28.50;;
43817;SDS011;29868;47.360;18.984;2023-03-01T19:49:02;63.95;;;30.45;;
43817;SDS011;29868;47.360;18.984;2023-03-01T19:51:28;59.97;;;28.83;;
43817;SDS011;29868;47.360;18.984;2023-03-01T19:53:54;60.10;;;29.15;;
43817;SDS011;29868;47.360;18.984;2023-03-01T19:56:20;58.28;;;28.88;;
43817;SDS011;29868;47.360;18.984;2023-03-01T19:58:45;56.45;;;27.63;;
43817;SDS011;29868;47.360;18.984;2023-03-01T20:01:16;58.13;;;29.67;;
43817;SDS011;29868;47.360;18.984;2023-03-01T20:03:44;76.13;;;35.20;;
43817;SDS011;29868;47.360;18.984;2023-03-01T20:06:14;80.22;;;37.17;;
43817;SDS011;29868;47.360;18.984;2023-03-01T20:08:42;78.60;;;35.00;;
43817;SDS011;29868;47.360;18.984;2023-03-01T20:11:09;73.20;;;35.20;;
43817;SDS011;29868;47.360;18.984;2023-03-01T20:13:36;72.97;;;34.53;;
43817;SDS011;29868;47.360;18.984;2023-03-01T20:16:02;83.40;;;37.90;;
43817;SDS011;29868;47.360;18.984;2023-03-01T20:18:28;108.95;;;47.45;;
43817;SDS011;29868;47.360;18.984;2023-03-01T20:20:53;167.18;;;73.50;;
43817;SDS011;29868;47.360;18.984;2023-03-01T20:23:19;97.45;;;45.67;;
43817;SDS011;29868;47.360;18.984;2023-03-01T20:25:45;126.43;;;56.10;;
43817;SDS011;29868;47.360;18.984;2023-03-01T20:28:15;104.15;;;47.78;;
43817;SDS011;29868;47.360;18.984;2023-03-01T20:30:42;98.38;;;45.65;;
43817;SDS011;29868;47.360;18.984;2023-03-01T20:33:07;83.95;;;39.88;;
43817;SDS011;29868;47.360;18.984;2023-03-01T20:35:33;84.50;;;41.72;;
43817;SDS011;29868;47.360;18.984;2023-03-01T20:38:00;88.82;;;43.50;;
43817;SDS011;29868;47.360;18.984;2023-03-01T20:40:26;87.38;;;41.17;;
43817;SDS011;29868;47.360;18.984;2023-03-01T20:42:55;89.55;;;40.10;;
43817;SDS011;29868;47.360;18.984;2023-03-01T20:45:24;83.85;;;39.83;;
43817;SDS011;29868;47.360;18.984;2023-03-01T20:47:49;86.35;;;40.92;;
43817;SDS011;29868;47.360;18.984;2023-03-01T20:50:16;93.15;;;41.90;;
43817;SDS011;29868;47.360;18.984;2023-03-01T20:52:42;88.70;;;40.60;;
43817;SDS011;29868;47.360;18.984;2023-03-01T20:55:08;83.90;;;39.50;;
43817;SDS011;29868;47.360;18.984;2023-03-01T20:57:34;80.35;;;38.65;;
43817;SDS011;29868;47.360;18.984;2023-03-01T21:00:00;181.30;;;98.50;;
43817;SDS011;29868;47.360;18.984;2023-03-01T21:02:26;112.10;;;57.97;;
43817;SDS011;29868;47.360;18.984;2023-03-01T21:04:51;85.68;;;42.20;;
43817;SDS011;29868;47.360;18.984;2023-03-01T21:07:17;86.63;;;42.00;;
43817;SDS011;29868;47.360;18.984;2023-03-01T21:09:42;82.28;;;38.20;;
43817;SDS011;29868;47.360;18.984;2023-03-01T21:12:09;75.30;;;37.28;;
43817;SDS011;29868;47.360;18.984;2023-03-01T21:14:35;70.70;;;34.78;;
43817;SDS011;29868;47.360;18.984;2023-03-01T21:17:09;71.30;;;35.10;;
43817;SDS011;29868;47.360;18.984;2023-03-01T21:19:37;68.80;;;35.10;;
43817;SDS011;29868;47.360;18.984;2023-03-01T21:22:05;75.15;;;35.47;;
43817;SDS011;29868;47.360;18.984;2023-03-01T21:24:31;72.30;;;35.25;;
43817;SDS011;29868;47.360;18.984;2023-03-01T21:26:57;70.03;;;34.58;;
43817;SDS011;29868;47.360;18.984;2023-03-01T21:29:23;70.55;;;32.92;;
43817;SDS011;29868;47.360;18.984;2023-03-01T21:31:48;66.30;;;33.22;;
43817;SDS011;29868;47.360;18.984;2023-03-01T21:34:14;71.10;;;34.95;;
43817;SDS011;29868;47.360;18.984;2023-03-01T21:36:39;62.63;;;32.28;;
43817;SDS011;29868;47.360;18.984;2023-03-01T21:39:06;67.13;;;33.00;;
43817;SDS011;29868;47.360;18.984;2023-03-01T21:41:32;64.07;;;32.25;;
43817;SDS011;29868;47.360;18.984;2023-03-01T21:44:00;59.95;;;31.15;;
43817;SDS011;29868;47.360;18.984;2023-03-01T21:46:27;68.22;;;31.02;;
43817;SDS011;29868;47.360;18.984;2023-03-01T21:48:55;121.32;;;62.85;;
43817;SDS011;29868;47.360;18.984;2023-03-01T21:51:22;78.68;;;35.20;;
43817;SDS011;29868;47.360;18.984;2023-03-01T21:53:50;76.80;;;36.40;;
43817;SDS011;29868;47.360;18.984;2023-03-01T21:56:20;72.03;;;34.78;;
43817;SDS011;29868;47.360;18.984;2023-03-01T21:58:48;71.15;;;33.13;;
43817;SDS011;29868;47.360;18.984;2023-03-01T22:01:17;81.07;;;33.42;;
43817;SDS011;29868;47.360;18.984;2023-03-01T22:03:45;75.53;;;33.42;;
43817;SDS011;29868;47.360;18.984;2023-03-01T22:08:43;71.80;;;31.40;;
43817;SDS011;29868;47.360;18.984;2023-03-01T22:11:13;70.10;;;32.25;;
43817;SDS011;29868;47.360;18.984;2023-03-01T22:13:39;72.68;;;32.17;;
43817;SDS011;29868;47.360;18.984;2023-03-01T22:16:05;67.55;;;28.70;;
43817;SDS011;29868;47.360;18.984;2023-03-01T22:18:30;56.75;;;27.45;;
43817;SDS011;29868;47.360;18.984;2023-03-01T22:21:01;64.10;;;28.25;;
43817;SDS011;29868;47.360;18.984;2023-03-01T22:23:27;56.00;;;25.02;;
43817;SDS011;29868;47.360;18.984;2023-03-01T22:25:53;63.72;;;28.88;;
43817;SDS011;29868;47.360;18.984;2023-03-01T22:28:18;52.58;;;25.98;;
43817;SDS011;29868;47.360;18.984;2023-03-01T22:30:44;57.95;;;26.63;;
43817;SDS011;29868;47.360;18.984;2023-03-01T22:33:09;50.67;;;25.23;;
43817;SDS011;29868;47.360;18.984;2023-03-01T22:35:35;53.00;;;24.95;;
43817;SDS011;29868;47.360;18.984;2023-03-01T22:38:00;45.40;;;21.17;;
43817;SDS011;29868;47.360;18.984;2023-03-01T22:40:25;48.25;;;23.08;;
43817;SDS011;29868;47.360;18.984;2023-03-01T22:42:51;45.20;;;21.63;;
43817;SDS011;29868;47.360;18.984;2023-03-01T22:45:16;38.85;;;20.92;;
43817;SDS011;29868;47.360;18.984;2023-03-01T22:47:42;40.65;;;20.80;;
43817;SDS011;29868;47.360;18.984;2023-03-01T22:50:07;34.78;;;19.73;;
43817;SDS011;29868;47.360;18.984;2023-03-01T22:52:36;38.40;;;19.38;;
43817;SDS011;29868;47.360;18.984;2023-03-01T22:55:03;36.83;;;21.65;;
43817;SDS011;29868;47.360;18.984;2023-03-01T22:57:29;30.10;;;16.33;;
43817;SDS011;29868;47.360;18.984;2023-03-01T22:59:54;28.02;;;16.02;;
43817;SDS011;29868;47.360;18.984;2023-03-01T23:02:20;26.65;;;14.63;;
43817;SDS011;29868;47.360;18.984;2023-03-01T23:04:46;27.90;;;13.93;;
43817;SDS011;29868;47.360;18.984;2023-03-01T23:07:12;27.50;;;14.02;;
43817;SDS011;29868;47.360;18.984;2023-03-01T23:09:38;26.70;;;13.05;;
43817;SDS011;29868;47.360;18.984;2023-03-01T23:12:03;65.35;;;35.53;;
43817;SDS011;29868;47.360;18.984;2023-03-01T23:14:31;83.07;;;45.85;;
43817;SDS011;29868;47.360;18.984;2023-03-01T23:16:58;33.25;;;17.65;;
43817;SDS011;29868;47.360;18.984;2023-03-01T23:19:25;28.45;;;14.00;;
43817;SDS011;29868;47.360;18.984;2023-03-01T23:21:51;25.25;;;13.98;;
43817;SDS011;29868;47.360;18.984;2023-03-01T23:24:19;25.73;;;13.35;;
43817;SDS011;29868;47.360;18.984;2023-03-01T23:26:48;26.23;;;14.20;;
43817;SDS011;29868;47.360;18.984;2023-03-01T23:29:19;28.02;;;14.23;;
43817;SDS011;29868;47.360;18.984;2023-03-01T23:31:45;25.92;;;12.98;;
43817;SDS011;29868;47.360;18.984;2023-03-01T23:34:11;28.02;;;13.95;;
43817;SDS011;29868;47.360;18.984;2023-03-01T23:36:36;26.58;;;13.63;;
43817;SDS011;29868;47.360;18.984;2023-03-01T23:39:09;27.10;;;13.25;;
43817;SDS011;29868;47.360;18.984;2023-03-01T23:41:36;24.95;;;12.63;;
43817;SDS011;29868;47.360;18.984;2023-03-01T23:44:03;25.00;;;12.55;;
43817;SDS011;29868;47.360;18.984;2023-03-01T23:46:31;27.52;;;13.70;;
43817;SDS011;29868;47.360;18.984;2023-03-01T23:48:59;24.08;;;12.68;;
43817;SDS011;29868;47.360;18.984;2023-03-01T23:51:25;23.13;;;13.13;;
43817;SDS011;29868;47.360;18.984;2023-03-01T23:53:52;26.45;;;13.68;;
43817;SDS011;29868;47.360;18.984;2023-03-01T23:56:24;24.45;;;12.98;;
43817;SDS011;29868;47.360;18.984;2023-03-01T23:58:52;29.35;;;14.00;;
